Big Wells, Texas
Current Conditions -  °F | °C
As of 10:35 AM on Saturday 22 Nov 2014 (Local Time) from KCZT Reporting Station
Overcast Overcast  
Wind Chill: 70°   Ceiling: 1600
Heat Index: 70°   Visibility: 10mi
Dew Point: 66°   Wind: 5mph
Humidity: 88%   Direction: 170°S
Pressure: 29.92"   Gusts: NA
Location:  28.57°N, 99.57°W
Report Text: KCZT 221635Z AUTO 17004KT 10SM BKN016 BKN023 OVC028 21/19 A2992 RMK AO2 LTG DSNT N
Loading
Personal Weather Stations






























Interactive Weather Map New forecast layout! Learn more

10-Day Weather Forecast

Advertisements
Track Severe Weather on mobile